KMKL/MKL METAR and TAF weather

Enter ICAO airport designator
Station Type Date Time Source
KMKL METAR 2022/05/24 11:53 UTC NOAA

KMKL 241153Z 09005KT 10SM OVC011 17/16 A3005 RMK AO2 SLP174 T01720156 10172 20172 50001


Station Type Date Time Source
KMKL Decoded METAR 2022/05/24 11:53 UTC NOAA

JACKSON MCKELLAR-SIPES RGNL, TN, United States (KMKL) 35-36N 088-55W 128M
May 24, 2022 - 07:53 AM EDT / 2022.05.24 1153 UTC
Wind: from the E (090 degrees) at 6 MPH (5 KT):0
Visibility: 10 mile(s):0
Sky conditions: overcast
Temperature: 63.0 F (17.2 C)
Dew Point: 60.1 F (15.6 C)
Relative Humidity: 90%
Pressure (altimeter): 30.05 in. Hg (1017 hPa)
Pressure tendency: 0.00 inches (0.1 hPa) higher than three hours ago
ob: KMKL 241153Z 09005KT 10SM OVC011 17/16 A3005 RMK AO2 SLP174 T01720156 10172 20172 50001
cycle: 12

Station Type Date Time Source
KMKL TAF 2022/05/24 12:40 UTC NOAA

TAF KMKL 241138Z 2412/2512 08007KT P6SM OVC015
FM241700 11007KT P6SM OVC025
FM241900 13007KT P6SM VCTS BKN035CB
FM250400 14008KT P6SM VCSH BKN015 WS020/18045KT

Example: see airport list